Time;durP1;ratioP1;P1;durP2;ratioP2;P2;SDS_P1;SDS_P2;PMS_P1;PMS_P2;Temp;Humidity;BMP_temperature;BMP_pressure;BME280_temperature;BME280_humidity;BME280_pressure;Samples;Min_cycle;Max_cycle;Signal;HPM_P1;HPM_P2
2022/08/03 00:00:16;;;;;;;2.97;2.60;;;22.30;65.50;;;;;;5014833;28;20029;-14
2022/08/03 00:02:42;;;;;;;4.15;2.42;;;22.20;65.60;;;;;;5014892;28;20061;-14
2022/08/03 00:05:08;;;;;;;3.90;2.45;;;22.30;65.50;;;;;;5015119;28;20053;-14
2022/08/03 00:07:34;;;;;;;4.10;2.75;;;22.30;65.40;;;;;;5014689;28;20026;-14
2022/08/03 00:10:00;;;;;;;3.70;2.30;;;22.30;65.60;;;;;;5014671;28;20022;-14
2022/08/03 00:12:26;;;;;;;7.53;2.20;;;22.30;65.30;;;;;;5014569;28;20101;-14
2022/08/03 00:14:52;;;;;;;3.20;2.40;;;22.30;65.30;;;;;;5014656;28;20030;-15
2022/08/03 00:17:18;;;;;;;2.58;2.38;;;22.30;65.50;;;;;;5014548;28;20025;-15
2022/08/03 00:19:43;;;;;;;3.40;2.35;;;22.30;65.30;;;;;;5014522;28;20022;-13
2022/08/03 00:22:09;;;;;;;2.70;2.30;;;22.30;65.40;;;;;;5014568;28;20029;-14
2022/08/03 00:24:35;;;;;;;2.80;2.60;;;22.20;65.30;;;;;;5014281;28;20064;-14
2022/08/03 00:27:01;;;;;;;4.68;2.50;;;22.20;65.60;;;;;;5014419;28;20117;-14
2022/08/03 00:29:27;;;;;;;3.03;2.50;;;22.20;65.50;;;;;;5014381;28;20129;-14
2022/08/03 00:31:53;;;;;;;3.35;2.65;;;22.10;65.80;;;;;;5014539;28;20026;-19
2022/08/03 00:34:19;;;;;;;3.40;2.50;;;22.00;66.20;;;;;;5014196;28;20428;-14
2022/08/03 00:36:44;;;;;;;2.83;2.50;;;22.00;66.30;;;;;;5014674;28;20030;-14
2022/08/03 00:39:10;;;;;;;3.50;2.60;;;21.90;66.50;;;;;;5014168;28;20030;-14
2022/08/03 00:41:36;;;;;;;4.53;2.80;;;21.90;66.60;;;;;;5014109;28;20072;-14
2022/08/03 00:44:02;;;;;;;4.55;2.70;;;21.90;67.00;;;;;;5014054;28;20071;-14
2022/08/03 00:46:28;;;;;;;4.40;2.78;;;21.80;67.00;;;;;;5014058;28;20041;-14
2022/08/03 00:48:54;;;;;;;2.63;2.20;;;21.80;67.20;;;;;;5013787;28;20405;-14
2022/08/03 00:51:21;;;;;;;3.75;2.63;;;21.70;67.30;;;;;;5013995;28;20033;-14
2022/08/03 00:53:48;;;;;;;5.03;2.50;;;21.60;67.40;;;;;;5013939;28;20101;-14
2022/08/03 00:56:15;;;;;;;3.05;2.60;;;21.60;67.50;;;;;;5013743;28;20033;-15
2022/08/03 00:58:43;;;;;;;3.20;2.50;;;21.50;67.70;;;;;;5012687;28;20076;-14
2022/08/03 01:01:11;;;;;;;3.65;2.67;;;21.50;67.90;;;;;;5014159;28;20026;-15
2022/08/03 01:03:37;;;;;;;3.72;2.22;;;21.40;67.80;;;;;;5013820;28;20038;-14
2022/08/03 01:06:17;;;;;;;3.97;2.83;;;21.50;67.90;;;;;;5014061;28;20036;-14
2022/08/03 01:08:49;;;;;;;3.45;2.65;;;21.50;67.90;;;;;;5014019;28;20036;-15
2022/08/03 01:11:28;;;;;;;4.05;2.80;;;21.50;67.70;;;;;;5014143;28;20026;-14
2022/08/03 01:14:10;;;;;;;3.83;2.50;;;21.50;67.70;;;;;;5013681;28;20104;-16
2022/08/03 01:16:43;;;;;;;3.60;2.60;;;21.50;67.60;;;;;;5013455;28;20058;-14
2022/08/03 01:19:32;;;;;;;3.72;3.00;;;21.50;67.50;;;;;;5013801;28;20068;-14
2022/08/03 01:22:17;;;;;;;3.63;2.80;;;21.50;67.60;;;;;;5013453;28;20033;-14
2022/08/03 01:25:19;;;;;;;4.43;2.83;;;21.40;67.70;;;;;;5013829;28;20049;-14
2022/08/03 01:28:04;;;;;;;2.58;2.38;;;21.40;68.20;;;;;;5013814;28;20034;-15
2022/08/03 01:30:33;;;;;;;2.92;2.58;;;21.40;68.00;;;;;;5013224;28;20053;-15
2022/08/03 01:33:04;;;;;;;4.65;2.70;;;21.40;68.00;;;;;;5013394;28;20026;-13
2022/08/03 01:35:43;;;;;;;5.13;2.80;;;21.40;67.90;;;;;;5013714;28;20033;-14
2022/08/03 01:38:14;;;;;;;4.05;3.00;;;21.30;68.00;;;;;;5013290;28;20030;-14
2022/08/03 01:40:43;;;;;;;3.60;2.50;;;21.30;68.10;;;;;;5013889;28;20054;-13
2022/08/03 01:43:13;;;;;;;4.88;3.00;;;21.20;68.20;;;;;;5013651;28;20136;-15
2022/08/03 01:45:42;;;;;;;2.92;2.63;;;21.30;68.30;;;;;;5013515;28;20026;-15
2022/08/03 01:48:09;;;;;;;4.78;2.55;;;21.20;68.20;;;;;;5013422;28;20033;-14
2022/08/03 01:50:37;;;;;;;3.78;2.80;;;21.30;68.10;;;;;;5012953;28;20536;-13
2022/08/03 01:53:04;;;;;;;3.85;3.00;;;21.20;68.10;;;;;;5013403;28;20025;-15
2022/08/03 01:55:32;;;;;;;3.00;2.70;;;21.20;68.30;;;;;;5013208;28;20428;-13
2022/08/03 01:58:01;;;;;;;3.10;2.80;;;21.20;68.40;;;;;;5013446;28;20373;-13
2022/08/03 02:00:29;;;;;;;2.65;2.30;;;21.20;68.50;;;;;;5014715;28;20093;-13
2022/08/03 02:02:56;;;;;;;3.10;2.80;;;21.20;68.60;;;;;;5017557;28;20449;-13
2022/08/03 02:05:23;;;;;;;5.70;2.63;;;21.00;68.90;;;;;;5017595;28;20026;-14
2022/08/03 02:07:50;;;;;;;4.28;2.92;;;21.10;68.90;;;;;;5016896;28;20037;-13
2022/08/03 02:10:19;;;;;;;4.20;3.20;;;21.00;69.10;;;;;;5016803;28;20056;-12
2022/08/03 02:12:49;;;;;;;3.63;2.80;;;20.90;69.20;;;;;;5016912;28;20030;-14
2022/08/03 02:15:18;;;;;;;3.00;2.65;;;21.00;69.40;;;;;;5017302;28;20030;-13
2022/08/03 02:17:46;;;;;;;5.93;2.65;;;20.90;69.50;;;;;;5016854;28;20033;-12
2022/08/03 02:20:14;;;;;;;2.70;2.42;;;20.90;69.50;;;;;;5017062;28;20026;-15
2022/08/03 02:22:41;;;;;;;3.58;2.80;;;20.90;69.50;;;;;;5016987;28;20081;-14
2022/08/03 02:25:09;;;;;;;2.90;2.58;;;20.90;69.90;;;;;;5017087;28;20030;-14
2022/08/03 02:27:38;;;;;;;3.17;2.78;;;20.80;70.10;;;;;;5016977;28;20030;-15
2022/08/03 02:30:08;;;;;;;3.88;2.70;;;20.70;70.00;;;;;;5016645;28;20067;-14
2022/08/03 02:32:37;;;;;;;3.85;2.63;;;20.70;70.20;;;;;;5015239;28;20026;-14
2022/08/03 02:35:08;;;;;;;4.07;3.13;;;20.60;70.30;;;;;;5016881;28;20112;-14
2022/08/03 02:37:41;;;;;;;5.50;2.90;;;20.70;70.80;;;;;;5016621;28;20503;-14
2022/08/03 02:40:10;;;;;;;3.93;3.20;;;20.60;70.60;;;;;;5016218;28;20169;-14
2022/08/03 02:42:39;;;;;;;3.20;2.90;;;20.50;70.80;;;;;;5016388;28;20264;-14
2022/08/03 02:45:12;;;;;;;5.10;3.40;;;20.50;71.00;;;;;;5016639;28;20049;-14
2022/08/03 02:47:40;;;;;;;;;;;20.50;71.20;;;;;;5016766;28;20036;-14
2022/08/03 02:50:10;;;;;;;3.88;3.28;;;20.50;71.40;;;;;;5016561;28;19905;-14
2022/08/03 02:52:37;;;;;;;10.73;3.60;;;20.40;71.30;;;;;;5016200;28;20148;-13
2022/08/03 02:55:05;;;;;;;4.25;3.22;;;20.50;71.40;;;;;;5016176;28;20532;-16
2022/08/03 02:57:34;;;;;;;3.28;2.97;;;20.50;71.40;;;;;;5016100;28;20040;-14
2022/08/03 03:00:01;;;;;;;4.65;2.83;;;20.50;71.60;;;;;;5016255;28;20425;-14
2022/08/03 03:02:28;;;;;;;3.88;3.00;;;20.50;71.30;;;;;;5014749;28;20030;-14
2022/08/03 03:04:55;;;;;;;3.00;2.70;;;20.50;71.10;;;;;;5016264;28;20133;-14
2022/08/03 03:07:21;;;;;;;3.90;2.80;;;20.50;71.00;;;;;;5016199;28;20075;-14
2022/08/03 03:09:48;;;;;;;4.70;3.00;;;20.50;71.00;;;;;;5015850;28;20028;-14
2022/08/03 03:12:16;;;;;;;3.30;2.53;;;20.50;71.00;;;;;;5015403;28;20502;-15
2022/08/03 03:14:42;;;;;;;4.82;2.83;;;20.50;70.90;;;;;;5016083;28;20037;-14
2022/08/03 03:17:13;;;;;;;3.88;2.85;;;20.50;71.00;;;;;;5015846;28;20037;-13
2022/08/03 03:19:42;;;;;;;4.35;3.50;;;20.50;71.00;;;;;;5015636;28;20084;-14
2022/08/03 03:22:09;;;;;;;5.65;3.30;;;20.40;71.00;;;;;;5015687;28;20087;-14
2022/08/03 03:24:36;;;;;;;4.03;3.25;;;20.40;71.00;;;;;;5015519;28;20030;-14
2022/08/03 03:27:03;;;;;;;3.70;3.00;;;20.40;71.00;;;;;;5015565;28;20029;-14
2022/08/03 03:29:31;;;;;;;3.72;3.00;;;20.40;71.00;;;;;;5015795;28;20022;-16
2022/08/03 03:31:57;;;;;;;4.55;3.30;;;20.40;71.10;;;;;;5015744;28;20036;-14
2022/08/03 03:34:23;;;;;;;4.07;3.58;;;20.40;71.00;;;;;;5015115;28;20509;-16
2022/08/03 03:36:49;;;;;;;6.03;3.80;;;20.40;71.10;;;;;;5015553;28;20387;-15
2022/08/03 03:39:15;;;;;;;4.72;3.72;;;20.40;71.20;;;;;;5014061;28;20041;-13
2022/08/03 03:41:42;;;;;;;5.65;3.25;;;20.40;71.40;;;;;;5015157;28;20054;-15
2022/08/03 03:44:08;;;;;;;3.58;2.90;;;20.40;71.40;;;;;;5014173;28;20025;-15
2022/08/03 03:46:34;;;;;;;4.47;3.30;;;20.40;71.40;;;;;;5015282;28;20037;-16
2022/08/03 03:49:00;;;;;;;5.03;4.18;;;20.40;71.40;;;;;;5015321;28;20385;-16
2022/08/03 03:51:26;;;;;;;4.18;3.30;;;20.40;71.50;;;;;;5015096;28;20026;-16
2022/08/03 03:53:56;;;;;;;5.55;3.50;;;20.30;71.60;;;;;;5014928;28;20041;-14
2022/08/03 03:56:22;;;;;;;3.50;2.92;;;20.40;71.70;;;;;;5015075;28;20022;-14
2022/08/03 03:58:48;;;;;;;7.82;3.78;;;20.30;71.60;;;;;;5015552;28;20059;-14
2022/08/03 04:01:16;;;;;;;4.28;3.58;;;20.30;71.70;;;;;;5015227;28;20029;-14
2022/08/03 04:03:42;;;;;;;7.85;3.90;;;20.30;71.80;;;;;;5014974;28;20038;-14
2022/08/03 04:11:44;;;;;;;5.10;3.22;;;20.30;72.10;;;;;;5014833;28;20032;-14
2022/08/03 04:14:19;;;;;;;5.17;3.50;;;20.30;72.10;;;;;;5015278;28;20026;-16
2022/08/03 04:17:01;;;;;;;4.20;3.00;;;20.30;72.00;;;;;;5014659;28;20030;-16
2022/08/03 04:19:44;;;;;;;5.63;3.10;;;20.30;71.80;;;;;;5014585;28;20065;-14
2022/08/03 04:22:14;;;;;;;9.90;4.07;;;20.40;71.80;;;;;;5014263;28;20048;-14
2022/08/03 04:24:46;;;;;;;4.40;2.92;;;20.40;71.70;;;;;;5014686;28;20057;-14
2022/08/03 04:27:15;;;;;;;7.90;3.63;;;20.40;71.70;;;;;;5015090;28;20025;-14
2022/08/03 04:29:45;;;;;;;4.80;3.25;;;20.40;71.60;;;;;;5014669;28;20030;-14
2022/08/03 04:32:12;;;;;;;8.93;4.28;;;20.40;71.50;;;;;;5014437;28;20025;-13
2022/08/03 04:34:39;;;;;;;10.93;4.03;;;20.50;71.40;;;;;;5014439;28;20022;-16
2022/08/03 04:37:12;;;;;;;14.57;4.13;;;20.50;71.40;;;;;;5014958;28;20517;-14
2022/08/03 04:39:40;;;;;;;6.20;3.08;;;20.60;71.40;;;;;;5014209;28;20038;-14
2022/08/03 04:42:10;;;;;;;6.00;3.72;;;20.60;71.20;;;;;;5014009;28;20561;-14
2022/08/03 04:44:41;;;;;;;5.22;3.58;;;20.70;71.10;;;;;;5014229;28;20026;-14
2022/08/03 04:47:07;;;;;;;6.43;3.35;;;20.70;71.00;;;;;;5014463;28;20071;-16
2022/08/03 04:49:37;;;;;;;4.18;3.45;;;20.80;70.80;;;;;;5012859;28;20022;-14
2022/08/03 04:52:06;;;;;;;5.22;3.60;;;20.90;70.80;;;;;;5013945;28;20026;-15
2022/08/03 04:54:39;;;;;;;4.80;3.28;;;21.00;70.60;;;;;;5013799;28;20022;-14
2022/08/03 04:57:05;;;;;;;4.30;2.80;;;21.10;70.30;;;;;;5014011;28;20034;-14
2022/08/03 04:59:31;;;;;;;3.75;2.60;;;21.20;70.10;;;;;;5014114;28;20034;-15
2022/08/03 05:01:57;;;;;;;3.20;2.90;;;21.40;69.90;;;;;;5012908;28;20030;-14
2022/08/03 05:04:23;;;;;;;4.53;3.13;;;21.40;69.40;;;;;;5013894;28;20022;-14
2022/08/03 05:06:49;;;;;;;5.72;2.72;;;21.50;69.20;;;;;;5013740;28;20026;-16
2022/08/03 05:09:15;;;;;;;4.60;2.63;;;21.60;69.10;;;;;;5013638;28;20026;-14
2022/08/03 05:11:41;;;;;;;4.00;3.00;;;21.70;68.80;;;;;;5014113;28;20083;-13
2022/08/03 05:14:07;;;;;;;4.65;2.80;;;21.80;68.70;;;;;;5013848;28;20449;-15
2022/08/03 05:16:33;;;;;;;19.33;5.47;;;21.90;68.60;;;;;;5013853;28;20030;-14
2022/08/03 05:18:59;;;;;;;6.90;3.13;;;21.90;68.40;;;;;;5013976;28;20467;-14
2022/08/03 05:21:25;;;;;;;5.28;3.47;;;22.00;68.30;;;;;;5013834;28;20088;-14
2022/08/03 05:23:51;;;;;;;6.32;3.40;;;22.10;68.30;;;;;;5013773;28;20423;-15
2022/08/03 05:26:17;;;;;;;6.32;3.20;;;22.20;68.10;;;;;;5013564;28;20501;-15
2022/08/03 05:28:43;;;;;;;3.40;3.10;;;22.30;68.00;;;;;;5013726;28;20474;-13
2022/08/03 05:31:09;;;;;;;5.38;3.60;;;22.40;67.90;;;;;;5013442;28;20028;-14
2022/08/03 05:33:35;;;;;;;7.80;3.75;;;22.40;67.90;;;;;;5014016;28;20036;-14
2022/08/03 05:36:01;;;;;;;6.70;3.30;;;22.50;67.60;;;;;;5013696;28;20037;-14
2022/08/03 05:38:27;;;;;;;20.95;6.88;;;22.60;67.80;;;;;;5013039;28;20386;-14
2022/08/03 05:40:53;;;;;;;15.02;5.53;;;22.70;67.70;;;;;;5013463;28;20046;-14
2022/08/03 05:43:19;;;;;;;5.65;3.40;;;22.90;67.90;;;;;;5013616;28;20061;-14
2022/08/03 05:45:45;;;;;;;4.45;3.10;;;22.90;67.30;;;;;;5013604;28;20058;-14
2022/08/03 05:48:11;;;;;;;5.35;3.47;;;23.00;67.00;;;;;;5013201;28;20552;-13
2022/08/03 05:50:37;;;;;;;5.88;4.10;;;23.10;67.40;;;;;;5013017;28;20108;-14
2022/08/03 05:53:03;;;;;;;4.63;3.53;;;23.20;67.10;;;;;;5013190;28;20021;-14
2022/08/03 05:55:29;;;;;;;4.10;3.35;;;23.40;67.00;;;;;;5013203;28;20163;-13
2022/08/03 05:57:55;;;;;;;6.38;3.90;;;23.50;66.50;;;;;;5013122;28;20195;-13
2022/08/03 06:00:21;;;;;;;13.05;4.45;;;23.60;66.10;;;;;;5012882;28;20022;-13
2022/08/03 06:02:47;;;;;;;5.45;3.80;;;23.60;66.10;;;;;;5011959;28;20041;-13
2022/08/03 06:05:13;;;;;;;5.78;3.60;;;23.80;65.80;;;;;;5013536;28;20080;-13
2022/08/03 06:07:39;;;;;;;7.75;3.50;;;23.80;65.50;;;;;;5013028;28;20034;-13
2022/08/03 06:10:06;;;;;;;6.70;3.28;;;23.90;65.30;;;;;;5013216;28;20033;-13
2022/08/03 06:12:34;;;;;;;8.02;3.58;;;23.90;65.30;;;;;;5013265;28;20052;-13
2022/08/03 06:15:02;;;;;;;5.93;3.60;;;24.10;65.10;;;;;;5013058;28;20040;-13
2022/08/03 06:17:29;;;;;;;4.50;3.15;;;24.20;64.80;;;;;;5012995;28;20040;-13
2022/08/03 06:19:56;;;;;;;6.78;3.50;;;24.30;64.90;;;;;;5013245;28;20026;-14
2022/08/03 06:22:22;;;;;;;6.15;3.28;;;24.40;65.10;;;;;;5012704;28;20057;-14
2022/08/03 06:24:48;;;;;;;3.97;3.10;;;24.50;64.90;;;;;;5012979;28;20030;-14
2022/08/03 06:27:13;;;;;;;4.32;3.40;;;24.60;64.20;;;;;;5013233;28;20030;-13
2022/08/03 06:29:40;;;;;;;3.90;3.30;;;24.80;64.00;;;;;;5012860;28;20113;-13
2022/08/03 06:32:06;;;;;;;3.90;3.10;;;24.90;63.90;;;;;;5013137;28;20080;-13
2022/08/03 06:34:32;;;;;;;7.45;3.60;;;25.00;63.60;;;;;;5012624;28;20041;-13
2022/08/03 06:36:57;;;;;;;5.57;3.53;;;25.10;63.60;;;;;;5013130;28;20026;-13
2022/08/03 06:39:23;;;;;;;7.20;3.90;;;25.20;63.40;;;;;;4995046;28;20466;-13
2022/08/03 06:41:50;;;;;;;6.45;4.15;;;25.40;62.90;;;;;;5012722;28;20111;-15
2022/08/03 06:44:16;;;;;;;5.38;4.03;;;25.50;62.70;;;;;;5011304;28;20421;-14
2022/08/03 06:46:42;;;;;;;4.70;4.03;;;25.60;62.40;;;;;;5014739;28;20026;-14
2022/08/03 06:49:08;;;;;;;8.88;5.18;;;25.70;62.10;;;;;;5015095;28;20029;-13
2022/08/03 06:51:34;;;;;;;5.45;4.13;;;25.90;61.80;;;;;;5016581;28;20382;-15
2022/08/03 06:54:00;;;;;;;6.63;3.97;;;25.90;61.40;;;;;;5016211;28;20063;-13
2022/08/03 06:56:26;;;;;;;6.47;3.70;;;26.00;61.20;;;;;;5016041;28;20030;-13
2022/08/03 06:58:52;;;;;;;5.68;3.60;;;26.20;60.90;;;;;;5016245;28;20040;-15
2022/08/03 07:01:18;;;;;;;3.95;3.47;;;26.40;60.40;;;;;;5016344;28;20077;-14
2022/08/03 07:03:44;;;;;;;6.00;3.30;;;26.60;59.70;;;;;;5016043;28;20492;-13
2022/08/03 07:06:10;;;;;;;7.63;3.35;;;26.70;59.30;;;;;;5016015;28;20036;-13
2022/08/03 07:08:36;;;;;;;3.67;2.92;;;26.90;58.90;;;;;;5015804;28;20398;-14
2022/08/03 07:11:02;;;;;;;5.10;3.17;;;27.20;57.80;;;;;;5016227;28;20026;-13
2022/08/03 07:13:28;;;;;;;3.65;3.10;;;27.40;57.00;;;;;;5014940;28;20061;-13
2022/08/03 07:15:55;;;;;;;5.22;2.80;;;27.60;55.30;;;;;;5016133;28;20037;-13
2022/08/03 07:18:22;;;;;;;5.30;3.00;;;27.90;54.70;;;;;;5015571;28;20072;-13
2022/08/03 07:20:48;;;;;;;3.95;2.70;;;28.00;53.30;;;;;;5015629;28;20065;-13
2022/08/03 07:23:14;;;;;;;3.28;2.70;;;28.20;53.40;;;;;;5014731;28;20029;-13
2022/08/03 07:25:39;;;;;;;3.85;3.13;;;28.50;52.70;;;;;;5015878;28;20056;-15
2022/08/03 07:28:05;;;;;;;4.15;3.00;;;28.70;52.20;;;;;;5015675;28;20482;-15
2022/08/03 07:30:31;;;;;;;4.07;2.85;;;28.90;50.40;;;;;;5015364;28;20117;-14
2022/08/03 07:32:57;;;;;;;3.03;2.70;;;29.10;50.30;;;;;;5015784;28;20053;-13
2022/08/03 07:35:23;;;;;;;3.80;2.58;;;29.20;49.80;;;;;;5015431;28;20026;-13
2022/08/03 07:37:49;;;;;;;4.60;2.78;;;29.40;49.80;;;;;;5015498;28;20474;-13
2022/08/03 07:40:16;;;;;;;2.85;2.50;;;29.60;49.30;;;;;;5013592;28;20064;-14
2022/08/03 07:42:42;;;;;;;5.47;2.80;;;29.80;48.80;;;;;;5015388;28;20083;-13
2022/08/03 07:45:08;;;;;;;4.22;2.80;;;30.00;47.00;;;;;;5015327;28;20022;-13
2022/08/03 07:47:35;;;;;;;4.82;2.80;;;30.20;46.50;;;;;;5015427;28;20048;-13
2022/08/03 07:50:00;;;;;;;3.15;2.83;;;30.30;46.60;;;;;;5014266;28;20079;-13
2022/08/03 07:55:11;;;;;;;4.80;2.80;;;30.70;46.60;;;;;;5015491;28;20037;-13
2022/08/03 07:57:37;;;;;;;4.47;2.95;;;31.00;46.30;;;;;;5012809;28;20026;-13
2022/08/03 08:00:06;;;;;;;3.47;2.80;;;31.20;45.70;;;;;;5015258;28;20034;-13
2022/08/03 08:02:32;;;;;;;4.47;2.72;;;31.30;45.00;;;;;;5014845;28;20474;-13
2022/08/03 08:04:58;;;;;;;3.30;2.40;;;31.50;45.40;;;;;;5015333;28;20038;-13
2022/08/03 08:07:25;;;;;;;3.60;2.40;;;31.70;45.60;;;;;;5015065;28;20076;-13
2022/08/03 08:09:51;;;;;;;3.97;2.67;;;31.90;44.20;;;;;;5015083;28;20026;-13
2022/08/03 08:12:17;;;;;;;2.78;2.58;;;32.10;44.20;;;;;;5088175;22;20053;-16
2022/08/03 08:14:45;;;;;;;3.47;2.53;;;32.30;43.40;;;;;;5015537;28;20425;-18
2022/08/03 08:17:12;;;;;;;3.08;2.50;;;32.60;42.60;;;;;;5014995;28;20053;-17
2022/08/03 08:19:38;;;;;;;3.60;2.80;;;32.70;42.10;;;;;;5014603;28;20507;-16
2022/08/03 08:22:05;;;;;;;3.13;2.60;;;32.90;41.70;;;;;;5014616;28;20128;-17
2022/08/03 08:24:32;;;;;;;4.30;2.50;;;33.00;40.90;;;;;;5014624;28;20065;-17
2022/08/03 08:27:00;;;;;;;4.20;2.60;;;33.20;40.90;;;;;;5013215;28;20489;-18
2022/08/03 08:29:26;;;;;;;2.60;2.40;;;33.30;40.60;;;;;;5014764;28;20521;-18
2022/08/03 08:31:52;;;;;;;2.70;2.50;;;33.40;40.20;;;;;;5013609;28;20057;-17
2022/08/03 08:34:18;;;;;;;2.70;2.50;;;33.60;39.70;;;;;;5014310;28;20030;-17
2022/08/03 08:36:44;;;;;;;3.83;2.63;;;33.80;39.60;;;;;;5014871;28;20101;-16
2022/08/03 08:39:11;;;;;;;3.58;2.38;;;33.90;38.60;;;;;;5014501;28;20022;-16
2022/08/03 08:41:37;;;;;;;4.05;2.38;;;34.00;38.90;;;;;;5014395;28;20477;-17
2022/08/03 08:44:03;;;;;;;3.40;2.40;;;34.20;39.10;;;;;;5014697;28;20022;-17
2022/08/03 08:46:32;;;;;;;3.17;2.30;;;34.20;37.50;;;;;;5012813;28;20367;-16
2022/08/03 08:48:59;;;;;;;3.20;2.60;;;34.10;37.80;;;;;;5014104;28;20037;-16
2022/08/03 08:51:30;;;;;;;3.33;2.60;;;34.10;38.20;;;;;;5014309;28;20071;-16
2022/08/03 08:54:01;;;;;;;3.92;2.53;;;34.20;37.60;;;;;;5014411;28;20045;-16
2022/08/03 08:56:28;;;;;;;5.55;2.40;;;34.20;37.50;;;;;;5013752;28;20030;-16
2022/08/03 08:58:58;;;;;;;5.88;2.60;;;34.40;38.40;;;;;;5012725;28;20432;-16
2022/08/03 09:01:25;;;;;;;3.33;2.50;;;34.60;37.80;;;;;;5014310;28;20022;-18
2022/08/03 09:03:52;;;;;;;3.85;2.47;;;34.90;36.80;;;;;;5014503;28;20025;-18
2022/08/03 09:06:22;;;;;;;2.70;2.50;;;35.20;36.50;;;;;;5013913;28;20022;-18
2022/08/03 09:08:48;;;;;;;3.67;2.90;;;35.30;36.90;;;;;;5013839;28;20029;-17
2022/08/03 09:11:14;;;;;;;3.60;2.50;;;35.50;37.00;;;;;;5013643;28;20050;-17
2022/08/03 09:13:41;;;;;;;2.60;2.30;;;35.70;36.20;;;;;;5013942;28;20381;-17
2022/08/03 09:16:16;;;;;;;3.40;2.45;;;36.00;36.00;;;;;;5013710;28;20033;-17
2022/08/03 09:18:45;;;;;;;3.78;2.60;;;36.00;34.90;;;;;;5013748;28;20029;-16
2022/08/03 09:21:19;;;;;;;2.50;2.30;;;36.00;35.40;;;;;;5013775;28;20504;-16
2022/08/03 09:23:53;;;;;;;3.33;2.38;;;36.20;35.30;;;;;;5013636;28;20496;-16
2022/08/03 09:26:24;;;;;;;3.10;2.80;;;36.00;35.80;;;;;;5013603;28;20030;-17
2022/08/03 09:28:57;;;;;;;2.80;2.50;;;35.90;35.10;;;;;;5013561;28;20497;-16
2022/08/03 09:31:34;;;;;;;3.03;2.30;;;35.90;35.10;;;;;;5012347;28;20480;-17
2022/08/03 09:34:09;;;;;;;4.13;2.65;;;36.00;34.90;;;;;;5013838;28;20065;-16
2022/08/03 09:36:45;;;;;;;3.15;2.10;;;36.10;35.20;;;;;;5013582;28;20026;-17
2022/08/03 09:39:22;;;;;;;5.38;2.53;;;36.40;35.20;;;;;;5013375;28;20109;-17
2022/08/03 09:42:07;;;;;;;5.15;2.58;;;36.30;34.50;;;;;;5013478;28;20065;-17
2022/08/03 09:44:40;;;;;;;2.50;2.30;;;36.10;33.70;;;;;;5013199;28;20022;-17
2022/08/03 09:47:11;;;;;;;2.70;2.38;;;36.40;33.50;;;;;;5013392;28;20033;-17
2022/08/03 09:49:40;;;;;;;2.40;2.20;;;36.40;33.90;;;;;;5013630;28;20026;-17
2022/08/03 09:52:18;;;;;;;2.30;2.10;;;36.70;33.20;;;;;;5013624;28;20481;-17
2022/08/03 09:54:50;;;;;;;3.05;2.15;;;36.80;33.00;;;;;;5013828;28;20021;-17
2022/08/03 09:57:23;;;;;;;2.95;2.65;;;37.00;32.40;;;;;;5013188;28;20033;-16
2022/08/03 09:59:51;;;;;;;4.63;2.30;;;36.90;32.70;;;;;;5013139;28;20083;-16
2022/08/03 10:02:23;;;;;;;5.57;2.53;;;36.90;33.20;;;;;;5013211;28;20098;-16
2022/08/03 10:04:51;;;;;;;4.82;2.30;;;37.00;32.50;;;;;;5013194;28;20038;-17
2022/08/03 10:07:22;;;;;;;5.20;2.53;;;37.20;32.40;;;;;;5013691;28;20032;-16
2022/08/03 10:09:58;;;;;;;2.90;2.60;;;37.20;32.20;;;;;;5013423;28;20485;-16
2022/08/03 10:12:25;;;;;;;2.85;2.22;;;37.20;33.00;;;;;;5012650;28;20144;-19
2022/08/03 10:14:53;;;;;;;2.35;2.22;;;37.10;33.20;;;;;;5013365;28;20030;-16
2022/08/03 10:17:20;;;;;;;2.33;2.13;;;37.30;32.90;;;;;;5013109;28;20481;-17
2022/08/03 10:19:47;;;;;;;3.38;2.47;;;37.50;33.10;;;;;;5012925;28;20037;-17
2022/08/03 10:22:21;;;;;;;2.85;2.65;;;37.70;32.40;;;;;;5016137;28;20034;-18
2022/08/03 10:24:58;;;;;;;5.20;2.67;;;37.90;31.60;;;;;;5017856;28;20034;-17
2022/08/03 10:27:31;;;;;;;2.83;2.13;;;38.10;31.50;;;;;;5016775;28;20572;-16
2022/08/03 10:30:04;;;;;;;2.60;2.40;;;38.30;31.60;;;;;;5016823;28;20030;-16
2022/08/03 10:32:53;;;;;;;2.60;2.38;;;38.50;30.40;;;;;;5016819;28;20018;-16
2022/08/03 10:35:22;;;;;;;5.30;2.45;;;38.50;30.10;;;;;;5017065;28;20022;-17
2022/08/03 10:37:55;;;;;;;2.40;2.20;;;38.40;30.70;;;;;;5016827;28;20121;-16
2022/08/03 10:40:22;;;;;;;2.53;2.40;;;38.50;30.90;;;;;;5016646;28;20034;-16
2022/08/03 10:42:52;;;;;;;2.60;2.40;;;38.40;31.30;;;;;;5016431;28;20032;-17
2022/08/03 10:45:22;;;;;;;3.00;2.13;;;38.70;31.10;;;;;;5015262;28;20060;-17
2022/08/03 10:47:50;;;;;;;3.47;2.40;;;39.10;30.80;;;;;;5016407;28;20477;-17
2022/08/03 10:50:18;;;;;;;2.42;2.22;;;39.10;30.50;;;;;;5016408;28;20126;-16
2022/08/03 10:52:58;;;;;;;3.42;2.25;;;38.90;31.10;;;;;;5016796;28;20022;-15
2022/08/03 10:58:37;;;;;;;2.40;2.20;;;38.80;30.30;;;;;;5016386;28;20080;-17
2022/08/03 11:01:12;;;;;;;3.17;2.10;;;39.10;31.10;;;;;;5016100;28;20053;-17
2022/08/03 11:03:53;;;;;;;3.70;2.40;;;39.60;29.30;;;;;;5016260;28;20035;-17
2022/08/03 11:06:23;;;;;;;3.38;2.30;;;40.00;29.70;;;;;;5016141;28;20045;-17
2022/08/03 11:09:10;;;;;;;2.35;2.15;;;40.50;29.90;;;;;;5016042;28;20076;-17
2022/08/03 11:11:42;;;;;;;2.53;2.33;;;40.70;29.40;;;;;;5015330;28;20050;-17
2022/08/03 11:14:18;;;;;;;3.88;2.28;;;40.40;29.30;;;;;;5016245;28;20120;-17
2022/08/03 11:17:06;;;;;;;2.55;2.10;;;40.40;28.40;;;;;;5015858;28;20033;-17
2022/08/03 11:19:52;;;;;;;3.63;2.30;;;40.80;27.80;;;;;;5016081;28;20026;-16
2022/08/03 11:22:19;;;;;;;2.42;2.17;;;41.10;27.40;;;;;;5015567;28;20034;-17
2022/08/03 11:24:49;;;;;;;2.38;2.10;;;41.40;27.90;;;;;;5015773;28;20056;-17
2022/08/03 11:27:23;;;;;;;3.63;2.33;;;41.50;27.90;;;;;;5015601;28;20037;-16
2022/08/03 11:29:58;;;;;;;2.20;2.00;;;41.40;27.30;;;;;;5015654;28;20080;-17
2022/08/03 11:32:36;;;;;;;3.95;2.25;;;41.00;28.30;;;;;;5015260;28;20029;-17
2022/08/03 11:35:22;;;;;;;3.83;2.25;;;41.20;27.90;;;;;;5015560;28;20466;-16
2022/08/03 11:37:56;;;;;;;2.38;2.28;;;41.70;28.10;;;;;;5015795;28;20026;-16
2022/08/03 11:40:36;;;;;;;2.95;2.20;;;42.20;27.60;;;;;;5015309;28;20068;-16
2022/08/03 11:43:03;;;;;;;2.90;2.38;;;42.60;27.40;;;;;;5015794;28;20022;-17
2022/08/03 11:45:30;;;;;;;2.03;1.92;;;42.70;27.50;;;;;;5015585;28;20026;-18
2022/08/03 11:47:59;;;;;;;2.50;2.30;;;42.70;27.40;;;;;;5015490;28;20022;-17
2022/08/03 11:50:25;;;;;;;3.13;2.60;;;42.70;27.00;;;;;;5015263;28;20033;-17
2022/08/03 11:52:51;;;;;;;2.88;2.53;;;42.90;26.30;;;;;;5015205;28;20374;-17
2022/08/03 11:55:20;;;;;;;2.70;2.08;;;42.80;26.60;;;;;;5015215;28;20026;-16
2022/08/03 11:57:47;;;;;;;2.78;2.22;;;42.60;26.90;;;;;;5015353;28;20037;-18
2022/08/03 12:00:27;;;;;;;2.20;2.00;;;42.20;27.10;;;;;;5015317;28;20074;-17
2022/08/03 12:02:59;;;;;;;2.60;2.30;;;42.10;27.20;;;;;;5015322;28;20025;-17
2022/08/03 12:05:35;;;;;;;;;;;42.30;27.70;;;;;;5016019;28;20025;-18
2022/08/03 12:08:01;;;;;;;2.53;2.33;;;42.70;26.70;;;;;;5014946;28;19912;-17
2022/08/03 12:10:28;;;;;;;3.53;1.67;;;42.80;26.50;;;;;;5014446;28;20032;-16
2022/08/03 12:12:56;;;;;;;2.47;2.20;;;42.90;26.60;;;;;;5015070;28;20026;-16
2022/08/03 12:15:32;;;;;;;2.38;2.17;;;43.20;26.20;;;;;;5015048;28;20100;-17
2022/08/03 12:17:59;;;;;;;2.45;2.25;;;43.40;25.40;;;;;;5015072;28;20021;-17
2022/08/03 12:20:28;;;;;;;3.70;2.20;;;43.60;25.90;;;;;;5014649;28;20030;-16
2022/08/03 12:23:00;;;;;;;2.00;1.90;;;43.90;25.00;;;;;;5014613;28;20076;-17
2022/08/03 12:25:27;;;;;;;2.25;2.05;;;44.00;25.30;;;;;;5014630;28;20128;-17
2022/08/03 12:28:09;;;;;;;2.30;2.13;;;44.30;25.00;;;;;;5014769;28;20038;-17
2022/08/03 12:30:36;;;;;;;;;;;44.60;24.20;;;;;;5014807;28;20108;-18
2022/08/03 12:33:15;;;;;;;1.60;1.50;;;44.80;23.50;;;;;;5015019;28;19905;-16
2022/08/03 12:35:42;;;;;;;2.10;1.80;;;45.00;23.30;;;;;;5014380;28;20037;-16
2022/08/03 12:38:11;;;;;;;3.00;1.85;;;45.30;23.40;;;;;;5014354;28;20061;-16
2022/08/03 12:40:41;;;;;;;2.13;1.88;;;45.40;23.70;;;;;;5014214;28;20030;-17
2022/08/03 12:43:13;;;;;;;2.38;1.92;;;45.60;23.30;;;;;;5014222;28;20025;-17
2022/08/03 12:45:39;;;;;;;2.22;2.00;;;45.70;23.00;;;;;;5014050;28;20493;-16
2022/08/03 12:48:12;;;;;;;2.00;1.85;;;45.70;23.40;;;;;;5014383;28;20025;-18
2022/08/03 12:50:40;;;;;;;2.75;1.73;;;45.60;23.70;;;;;;5014051;28;20041;-17
2022/08/03 12:53:08;;;;;;;3.47;2.20;;;45.50;23.60;;;;;;5014408;28;20151;-16
2022/08/03 12:55:37;;;;;;;2.63;1.85;;;45.50;23.50;;;;;;5014395;28;20040;-17
2022/08/03 12:58:06;;;;;;;2.83;2.03;;;45.40;23.50;;;;;;5013933;28;20028;-16
2022/08/03 13:00:33;;;;;;;2.15;1.92;;;45.40;23.40;;;;;;5013689;28;20064;-17
2022/08/03 13:03:06;;;;;;;2.65;2.00;;;45.50;22.90;;;;;;5014399;28;20037;-16
2022/08/03 13:05:45;;;;;;;3.50;1.80;;;45.40;22.80;;;;;;5014197;28;20064;-17
2022/08/03 13:08:22;;;;;;;1.88;1.40;;;45.00;23.30;;;;;;5013829;28;20057;-16